Time;durP1;ratioP1;P1;durP2;ratioP2;P2;SDS_P1;SDS_P2;PMS_P1;PMS_P2;Temp;Humidity;BMP_temperature;BMP_pressure;BME280_temperature;BME280_humidity;BME280_pressure;Samples;Min_cycle;Max_cycle;Signal;HPM_P1;HPM_P2
2022/12/08 00:01:09;;;;;;;11.85;5.87;;;;;;;1.85;81.95;98033.56;1651464;86;25719;-65
2022/12/08 00:03:35;;;;;;;12.70;7.05;;;;;;;1.86;82.03;98037.88;1651985;86;25459;-65
2022/12/08 00:11:30;;;;;;;12.45;6.55;;;;;;;1.84;81.88;98031.95;1627866;88;25743;-66
2022/12/08 00:13:57;;;;;;;13.10;6.90;;;;;;;1.78;82.09;98041.93;1606811;88;25800;-64
2022/12/08 00:16:23;;;;;;;10.60;5.85;;;;;;;1.75;82.10;98039.24;1628541;88;25532;-65
2022/12/08 00:18:50;;;;;;;9.38;4.78;;;;;;;1.72;82.16;98043.02;1628754;88;26259;-66
2022/12/08 00:21:17;;;;;;;11.63;6.53;;;;;;;1.70;82.23;98046.55;1628428;88;25562;-65
2022/12/08 00:23:43;;;;;;;12.93;6.58;;;;;;;1.67;82.44;98038.98;1628602;88;27408;-65
2022/12/08 00:26:10;;;;;;;10.40;6.05;;;;;;;1.67;82.40;98038.42;1628598;88;25483;-65
2022/12/08 00:28:37;;;;;;;10.95;5.75;;;;;;;1.69;82.33;98044.91;1628329;88;25712;-65
2022/12/08 00:31:11;;;;;;;10.23;5.45;;;;;;;1.70;82.16;98045.19;1628586;88;26117;-65
2022/12/08 00:33:38;;;;;;;13.98;6.95;;;;;;;1.69;82.30;98050.30;1628552;88;25592;-65
2022/12/08 00:36:12;;;;;;;15.93;8.45;;;;;;;1.67;82.40;98047.08;1628773;88;27558;-65
2022/12/08 00:38:40;;;;;;;14.93;7.75;;;;;;;1.64;82.60;98052.46;1628658;88;25785;-65
2022/12/08 00:41:16;;;;;;;14.85;7.37;;;;;;;1.60;82.70;98055.44;1628475;88;25502;-66
2022/12/08 00:43:43;;;;;;;13.68;7.50;;;;;;;1.59;82.61;98054.66;1630516;86;25768;-69
2022/12/08 00:46:10;;;;;;;12.23;6.87;;;;;;;1.60;82.62;98054.91;1651360;86;25443;-65
2022/12/08 00:48:37;;;;;;;13.20;6.85;;;;;;;1.64;82.59;98056.52;1651663;86;27638;-65
2022/12/08 00:51:03;;;;;;;12.33;6.58;;;;;;;1.66;82.46;98062.47;1656320;86;27258;-65
2022/12/08 00:53:31;;;;;;;10.72;5.33;;;;;;;1.67;82.51;98060.59;1656646;86;25667;-65
2022/12/08 00:55:57;;;;;;;11.40;5.37;;;;;;;1.66;82.56;98070.57;1656402;86;26164;-65
2022/12/08 00:58:23;;;;;;;7.90;4.65;;;;;;;1.62;82.53;98065.45;1656274;86;25473;-64
2022/12/08 01:00:50;;;;;;;10.68;5.92;;;;;;;1.61;82.65;98074.08;1656326;86;27349;-65
2022/12/08 01:03:16;;;;;;;12.15;7.50;;;;;;;1.60;82.80;98075.70;1656253;86;25872;-65
2022/12/08 01:05:43;;;;;;;11.63;6.80;;;;;;;1.60;82.80;98079.22;1656395;86;25763;-65
2022/12/08 01:08:09;;;;;;;10.18;5.70;;;;;;;1.63;82.79;98075.16;1656840;86;26054;-65
2022/12/08 01:10:36;;;;;;;11.83;5.90;;;;;;;1.66;82.50;98085.95;1656569;86;25469;-64
2022/12/08 01:13:03;;;;;;;14.45;5.72;;;;;;;1.65;82.48;98078.41;1656536;86;27470;-64
2022/12/08 01:15:30;;;;;;;10.78;7.00;;;;;;;1.65;82.54;98083.00;1656521;86;25466;-64
2022/12/08 01:17:56;;;;;;;9.85;5.65;;;;;;;1.60;82.50;98080.57;1656918;86;25443;-64
2022/12/08 01:20:23;;;;;;;13.95;6.95;;;;;;;1.58;82.59;98088.68;1656514;86;26063;-64
2022/12/08 01:22:49;;;;;;;12.13;6.37;;;;;;;1.58;82.68;98090.82;1656944;86;25694;-66
2022/12/08 01:25:16;;;;;;;11.85;6.83;;;;;;;1.58;82.64;98084.62;1656584;86;27463;-64
2022/12/08 01:27:42;;;;;;;12.43;6.12;;;;;;;1.61;82.66;98081.36;1656429;86;25670;-65
2022/12/08 01:30:12;;;;;;;11.45;6.60;;;;;;;1.63;82.54;98091.37;1656860;86;25600;-64
2022/12/08 01:32:38;;;;;;;9.20;5.25;;;;;;;1.65;82.69;98085.70;1656579;86;26056;-64
2022/12/08 01:35:06;;;;;;;9.60;5.33;;;;;;;1.64;82.60;98092.98;1656730;86;25712;-64
2022/12/08 01:37:32;;;;;;;9.00;5.10;;;;;;;1.61;82.75;98081.36;1656822;86;27562;-64
2022/12/08 01:39:58;;;;;;;13.50;6.28;;;;;;;1.59;82.75;98088.94;1656547;86;25681;-65
2022/12/08 01:42:25;;;;;;;11.33;6.40;;;;;;;1.58;82.81;98080.02;1656557;86;25698;-64
2022/12/08 01:44:59;;;;;;;10.98;6.55;;;;;;;1.58;82.82;98084.07;1656978;86;26102;-63
2022/12/08 01:47:30;;;;;;;10.95;6.03;;;;;;;1.59;82.80;98078.95;1656516;86;25638;-64
2022/12/08 01:49:57;;;;;;;10.98;5.95;;;;;;;1.61;82.80;98080.02;1656597;86;27555;-64
2022/12/08 01:52:35;;;;;;;13.22;6.75;;;;;;;1.66;82.62;98085.95;1656468;86;25723;-64
2022/12/08 01:55:07;;;;;;;10.60;5.75;;;;;;;1.67;82.49;98080.29;1656466;86;25454;-69
2022/12/08 01:57:44;;;;;;;12.85;6.17;;;;;;;1.65;82.67;98077.59;1656866;86;26067;-66
2022/12/08 02:00:15;;;;;;;12.37;6.15;;;;;;;1.62;82.72;98077.05;1656564;86;25500;-65
2022/12/08 02:02:59;;;;;;;;;;;;;;;1.60;82.80;98083.80;1659416;86;27483;-64
2022/12/08 02:05:33;;;;;;;9.30;4.58;;;;;;;1.56;82.76;98078.67;1656541;86;25761;-65
2022/12/08 02:08:05;;;;;;;11.93;6.20;;;;;;;1.52;82.74;98077.04;1656362;86;25703;-64
2022/12/08 02:10:36;;;;;;;10.90;5.95;;;;;;;1.49;82.75;98070.30;1656475;86;26049;-65
2022/12/08 02:13:05;;;;;;;11.38;6.55;;;;;;;1.50;82.76;98071.91;1657005;86;25739;-69
2022/12/08 02:15:52;;;;;;;12.40;6.20;;;;;;;1.50;82.81;98062.45;1656810;86;27463;-69
2022/12/08 02:18:47;;;;;;;12.10;6.53;;;;;;;1.50;82.68;98064.36;1656518;86;25699;-67
2022/12/08 02:21:48;;;;;;;7.30;4.25;;;;;;;1.53;82.67;98065.17;1656158;86;25631;-67
2022/12/08 02:24:38;;;;;;;10.70;5.72;;;;;;;1.48;82.69;98059.76;1656645;86;26064;-69
2022/12/08 02:27:43;;;;;;;11.45;6.03;;;;;;;1.44;82.77;98069.48;1656923;86;26001;-65
2022/12/08 02:30:37;;;;;;;12.05;5.55;;;;;;;1.37;82.88;98063.80;1656888;86;28406;-66
2022/12/08 02:33:21;;;;;;;12.90;6.00;;;;;;;1.38;82.90;98068.11;1656647;86;25426;-65
2022/12/08 02:36:04;;;;;;;11.43;6.30;;;;;;;1.38;82.90;98069.47;1656625;86;25467;-71
2022/12/08 02:38:54;;;;;;;14.90;6.58;;;;;;;1.38;82.91;98067.30;1656473;86;26206;-67
2022/12/08 02:41:47;;;;;;;9.18;4.62;;;;;;;1.39;82.93;98068.94;1656625;86;25682;-66
2022/12/08 02:44:25;;;;;;;7.12;3.30;;;;;;;1.36;82.96;98064.86;1656624;86;27360;-65
2022/12/08 02:47:14;;;;;;;15.80;6.70;;;;;;;1.36;82.98;98059.46;1656723;86;25455;-66
2022/12/08 02:49:41;;;;;;;17.10;7.70;;;;;;;1.35;83.08;98061.08;1657288;86;25580;-73
2022/12/08 02:52:22;;;;;;;12.43;6.95;;;;;;;1.35;83.17;98061.90;1656343;86;26087;-70
2022/12/08 02:54:56;;;;;;;13.13;6.03;;;;;;;1.35;83.31;98058.37;1656630;86;25763;-68
2022/12/08 02:57:46;;;;;;;11.22;6.33;;;;;;;1.40;83.20;98067.02;1656971;86;27471;-66
2022/12/08 03:00:21;;;;;;;12.40;6.37;;;;;;;1.44;83.16;98065.43;1655858;86;25799;-68
2022/12/08 03:03:11;;;;;;;13.05;7.28;;;;;;;1.48;83.12;98061.11;1655337;86;25462;-66
2022/12/08 03:06:10;;;;;;;12.53;6.83;;;;;;;1.52;82.94;98054.64;1656343;86;26119;-68
2022/12/08 03:09:01;;;;;;;13.18;7.40;;;;;;;1.54;82.77;98057.86;1657384;86;25616;-66
2022/12/08 03:11:39;;;;;;;;;;;;;;;1.56;82.85;98050.31;1658783;86;27400;-67
2022/12/08 03:14:09;;;;;;;7.25;3.87;;;;;;;1.55;82.72;98054.11;1656926;86;26225;-69
2022/12/08 03:16:39;;;;;;;12.58;6.72;;;;;;;1.53;82.52;98050.33;1656889;86;25465;-70
2022/12/08 03:19:29;;;;;;;16.82;7.83;;;;;;;1.53;82.61;98054.38;1657092;86;26024;-66
2022/12/08 03:22:02;;;;;;;12.13;6.95;;;;;;;1.55;82.73;98055.45;1656689;86;25462;-69
2022/12/08 03:24:30;;;;;;;13.50;7.30;;;;;;;1.55;82.59;98055.45;1656616;86;25834;-66
2022/12/08 03:27:04;;;;;;;8.25;4.60;;;;;;;1.57;82.50;98051.40;1656939;86;25477;-66
2022/12/08 03:29:32;;;;;;;9.80;5.35;;;;;;;1.59;82.29;98052.48;1657127;86;25584;-69
2022/12/08 03:32:24;;;;;;;13.55;6.85;;;;;;;1.58;82.35;98044.91;1656628;86;26000;-67
2022/12/08 03:34:53;;;;;;;7.03;4.12;;;;;;;1.56;82.40;98045.73;1645647;87;25760;-67
2022/12/08 03:37:20;;;;;;;10.40;5.28;;;;;;;1.52;82.42;98051.38;1647014;87;28107;-67
2022/12/08 03:39:47;;;;;;;11.93;6.25;;;;;;;1.50;82.52;98048.16;1646557;87;25722;-66
2022/12/08 03:42:13;;;;;;;9.88;5.22;;;;;;;1.47;82.54;98044.64;1646659;87;25580;-69
2022/12/08 03:44:40;;;;;;;12.43;6.58;;;;;;;1.44;82.55;98047.32;1646640;87;26011;-72
2022/12/08 03:47:06;;;;;;;14.93;8.78;;;;;;;1.45;82.60;98044.09;1647079;87;25827;-72
2022/12/08 03:49:32;;;;;;;15.72;8.15;;;;;;;1.45;82.65;98046.27;1646736;87;26627;-69
2022/12/08 03:51:58;;;;;;;11.05;5.55;;;;;;;1.46;82.56;98043.00;1647023;87;25801;-68
2022/12/08 03:54:25;;;;;;;12.82;6.90;;;;;;;1.47;82.54;98050.84;1646662;87;25611;-69
2022/12/08 03:56:52;;;;;;;9.83;5.42;;;;;;;1.48;82.57;98043.03;1646607;87;26077;-65
2022/12/08 03:59:18;;;;;;;12.35;6.75;;;;;;;1.46;82.48;98041.66;1646653;87;25509;-67
2022/12/08 04:01:45;;;;;;;15.28;7.22;;;;;;;1.46;82.61;98043.00;1646937;87;27389;-67
2022/12/08 04:04:11;;;;;;;7.75;4.80;;;;;;;1.44;82.60;98045.97;1646826;87;25527;-66
2022/12/08 04:06:37;;;;;;;12.23;7.33;;;;;;;1.45;82.72;98045.44;1640049;87;25584;-66
2022/12/08 04:09:04;;;;;;;15.35;7.90;;;;;;;1.45;82.65;98041.39;1635261;87;26193;-71
2022/12/08 04:11:30;;;;;;;14.73;7.75;;;;;;;1.47;82.60;98043.30;1654612;85;25758;-67
2022/12/08 04:13:57;;;;;;;13.32;6.33;;;;;;;1.49;82.65;98047.87;1671583;85;27508;-70
2022/12/08 04:16:26;;;;;;;13.93;6.08;;;;;;;1.49;82.52;98043.81;1670775;85;25998;-69
2022/12/08 04:18:53;;;;;;;17.23;7.65;;;;;;;1.46;82.52;98039.77;1671038;85;25591;-70
2022/12/08 04:21:20;;;;;;;14.45;7.75;;;;;;;1.44;82.59;98044.63;1671095;85;26012;-67
2022/12/08 04:23:47;;;;;;;12.33;7.25;;;;;;;1.43;82.71;98034.09;1670875;85;25625;-68
2022/12/08 04:26:15;;;;;;;11.08;6.47;;;;;;;1.41;82.62;98027.61;1670927;85;29548;-67
2022/12/08 04:28:41;;;;;;;12.23;6.42;;;;;;;1.39;82.69;98036.53;1670658;85;25453;-67
2022/12/08 04:31:08;;;;;;;18.55;8.03;;;;;;;1.38;82.65;98032.20;1670839;85;25509;-66
2022/12/08 04:33:34;;;;;;;17.85;9.63;;;;;;;1.38;82.59;98031.66;1670837;85;26062;-66
2022/12/08 04:36:03;;;;;;;16.30;7.47;;;;;;;1.41;82.60;98034.92;1670985;85;25622;-67
2022/12/08 04:38:30;;;;;;;14.87;7.53;;;;;;;1.43;82.47;98034.09;1671186;85;27479;-66
2022/12/08 04:40:56;;;;;;;12.15;6.60;;;;;;;1.43;82.50;98029.52;1670769;85;25722;-67
2022/12/08 04:43:22;;;;;;;12.98;6.47;;;;;;;1.45;82.57;98030.59;1671257;85;25632;-67
2022/12/08 04:45:49;;;;;;;13.70;7.17;;;;;;;1.45;82.60;98034.11;1670808;85;26072;-66
2022/12/08 04:48:16;;;;;;;10.65;5.92;;;;;;;1.44;82.59;98031.68;1671316;85;25699;-66
2022/12/08 04:50:44;;;;;;;16.27;7.62;;;;;;;1.45;82.51;98031.41;1671087;85;27587;-66
2022/12/08 04:53:12;;;;;;;14.78;7.85;;;;;;;1.45;82.60;98018.44;1670822;85;25616;-66
2022/12/08 04:55:44;;;;;;;17.77;9.35;;;;;;;1.47;82.44;98025.19;1671188;85;25639;-66
2022/12/08 04:58:16;;;;;;;10.55;5.65;;;;;;;1.49;82.43;98020.33;1671124;85;26000;-68
2022/12/08 05:00:43;;;;;;;12.05;6.17;;;;;;;1.51;82.27;98018.72;1671313;85;25502;-65
2022/12/08 05:03:10;;;;;;;11.12;5.90;;;;;;;1.53;82.06;98017.92;1670821;85;26745;-65
2022/12/08 05:05:37;;;;;;;14.98;7.55;;;;;;;1.56;82.00;98024.12;1670715;85;25631;-67
2022/12/08 05:08:03;;;;;;;16.50;7.22;;;;;;;1.58;82.05;98023.86;1671210;85;25458;-68
2022/12/08 05:10:31;;;;;;;12.03;6.33;;;;;;;1.56;82.09;98021.43;1671055;85;26063;-66
2022/12/08 05:12:59;;;;;;;16.82;8.15;;;;;;;1.55;82.17;98031.94;1671112;84;25548;-65
2022/12/08 05:15:25;;;;;;;16.65;8.98;;;;;;;1.54;82.20;98047.06;1669103;85;27385;-65
2022/12/08 05:17:51;;;;;;;19.12;9.18;;;;;;;1.52;82.29;98055.44;1668578;86;25779;-65
2022/12/08 05:20:18;;;;;;;19.92;9.48;;;;;;;1.49;82.36;98043.29;1668709;86;25457;-66
2022/12/08 05:22:44;;;;;;;16.97;9.08;;;;;;;1.50;82.21;98046.81;1668681;86;25983;-65
2022/12/08 05:25:11;;;;;;;14.03;7.40;;;;;;;1.50;82.23;98048.16;1668326;86;25445;-66
2022/12/08 05:27:37;;;;;;;11.38;6.25;;;;;;;1.52;82.11;98041.14;1668375;86;27423;-65
2022/12/08 05:30:06;;;;;;;22.05;10.75;;;;;;;1.54;81.86;98044.36;1668277;86;25565;-69
2022/12/08 05:32:32;;;;;;;123.47;39.18;;;;;;;1.54;81.85;98037.08;1668756;86;25441;-65
2022/12/08 05:34:58;;;;;;;41.77;20.90;;;;;;;1.52;81.83;98036.53;1668110;85;26113;-65
2022/12/08 05:37:24;;;;;;;381.23;158.55;;;;;;;1.49;81.85;98040.59;1668691;85;25976;-67
2022/12/08 05:39:51;;;;;;;51.23;19.37;;;;;;;1.46;81.93;98041.13;1669428;85;27464;-66
2022/12/08 05:42:17;;;;;;;21.60;9.00;;;;;;;1.44;81.88;98041.13;1669146;85;25808;-65
2022/12/08 05:44:43;;;;;;;113.17;28.25;;;;;;;1.40;81.78;98044.89;1671247;85;25754;-69
2022/12/08 05:47:10;;;;;;;15.98;7.60;;;;;;;1.38;81.97;98041.11;1670887;85;26060;-67
2022/12/08 05:49:36;;;;;;;62.43;17.67;;;;;;;1.38;81.88;98035.72;1670957;85;25690;-65
2022/12/08 05:52:03;;;;;;;23.15;11.12;;;;;;;1.41;81.92;98039.76;1671096;85;28063;-65
2022/12/08 05:54:29;;;;;;;33.10;12.88;;;;;;;1.43;81.85;98044.89;1670873;85;25476;-65
2022/12/08 05:56:56;;;;;;;21.45;8.28;;;;;;;1.44;81.87;98039.78;1670916;85;25750;-69
2022/12/08 05:59:22;;;;;;;20.52;7.17;;;;;;;1.42;81.67;98037.88;1670998;85;26201;-65
2022/12/08 06:01:49;;;;;;;24.18;8.73;;;;;;;1.35;81.68;98030.84;1671425;85;25437;-65
2022/12/08 06:04:15;;;;;;;30.32;10.05;;;;;;;1.33;81.81;98032.20;1671149;85;27641;-66
2022/12/08 06:06:41;;;;;;;23.95;11.05;;;;;;;1.28;81.87;98030.31;1663593;85;25686;-65
2022/12/08 06:09:12;;;;;;;28.25;9.83;;;;;;;1.24;82.01;98037.33;1655904;86;25626;-66
2022/12/08 06:11:38;;;;;;;;;;;;;;;1.22;82.03;98032.73;1659271;86;26004;-66
2022/12/08 06:14:04;;;;;;;22.07;9.50;;;;;;;1.20;82.04;98039.74;1656518;86;25703;-65
2022/12/08 06:16:31;;;;;;;27.80;10.80;;;;;;;1.20;81.99;98038.39;1635990;86;28126;-66
2022/12/08 06:18:58;;;;;;;19.67;7.80;;;;;;;1.22;81.94;98039.48;1656302;86;25722;-68
2022/12/08 06:21:25;;;;;;;15.03;7.05;;;;;;;1.23;81.91;98045.14;1656501;86;25831;-73
2022/12/08 06:23:54;;;;;;;17.02;7.33;;;;;;;1.22;81.80;98046.22;1656523;86;25971;-73
2022/12/08 06:26:21;;;;;;;41.60;14.55;;;;;;;1.21;81.94;98054.06;1657937;86;25441;-65
2022/12/08 06:28:49;;;;;;;36.70;12.35;;;;;;;1.20;82.03;98048.37;1656663;86;27431;-67
2022/12/08 06:31:23;;;;;;;17.07;7.50;;;;;;;1.18;81.97;98049.98;1656622;86;26074;-71
2022/12/08 06:33:49;;;;;;;79.90;21.62;;;;;;;1.17;81.85;98050.25;1656617;86;25650;-69
2022/12/08 06:36:19;;;;;;;17.30;8.18;;;;;;;1.17;81.92;98054.30;1656400;86;26008;-66
2022/12/08 06:38:47;;;;;;;21.42;9.88;;;;;;;1.18;81.87;98054.59;1656845;86;25687;-65
2022/12/08 06:41:16;;;;;;;24.05;10.78;;;;;;;1.21;81.84;98061.59;1656440;86;27425;-66
2022/12/08 06:43:43;;;;;;;12.82;7.37;;;;;;;1.24;81.72;98057.02;1656771;86;25737;-68
2022/12/08 06:46:13;;;;;;;14.55;7.65;;;;;;;1.25;81.59;98058.66;1656792;86;25661;-66
2022/12/08 06:48:40;;;;;;;21.95;8.90;;;;;;;1.28;81.51;98061.35;1656721;86;26004;-66
2022/12/08 06:51:14;;;;;;;25.00;11.80;;;;;;;1.29;81.60;98058.13;1656675;86;25434;-69
2022/12/08 06:53:42;;;;;;;12.50;6.17;;;;;;;1.31;81.68;98061.34;1656758;86;28179;-69
2022/12/08 06:56:10;;;;;;;18.85;8.18;;;;;;;1.32;81.51;98067.83;1656519;86;25595;-71
2022/12/08 06:58:38;;;;;;;26.80;11.50;;;;;;;1.33;81.50;98070.00;1656711;86;25778;-68
2022/12/08 07:01:07;;;;;;;22.27;8.90;;;;;;;1.35;81.53;98070.53;1656861;86;26790;-68
2022/12/08 07:03:35;;;;;;;20.15;9.68;;;;;;;1.38;81.59;98069.47;1656665;86;25613;-65
2022/12/08 07:06:02;;;;;;;14.53;7.47;;;;;;;1.40;81.51;98072.42;1656408;86;27502;-64
2022/12/08 07:08:28;;;;;;;21.77;10.50;;;;;;;1.41;81.41;98067.31;1656492;86;25651;-65
2022/12/08 07:10:55;;;;;;;18.07;8.18;;;;;;;1.46;81.52;98070.83;1656869;86;25482;-65
2022/12/08 07:13:22;;;;;;;21.35;10.35;;;;;;;1.50;81.31;98064.36;1653043;86;26081;-65
2022/12/08 07:15:48;;;;;;;21.37;10.20;;;;;;;1.58;81.28;98063.81;1656978;86;25446;-65
2022/12/08 07:18:15;;;;;;;18.50;8.78;;;;;;;1.66;81.30;98063.00;1656640;86;27551;-66
2022/12/08 07:20:41;;;;;;;14.65;7.17;;;;;;;1.71;80.85;98067.88;1656929;86;25750;-64
2022/12/08 07:23:08;;;;;;;12.65;6.22;;;;;;;1.73;80.47;98060.86;1656639;86;25498;-64
2022/12/08 07:25:34;;;;;;;17.45;7.62;;;;;;;1.75;80.28;98058.69;1656956;86;26184;-64
2022/12/08 07:28:03;;;;;;;9.20;3.72;;;;;;;1.76;80.23;98058.97;1656969;86;25450;-65
2022/12/08 07:30:29;;;;;;;11.60;6.60;;;;;;;1.78;79.46;98060.84;1655801;86;27509;-65
2022/12/08 07:32:56;;;;;;;19.17;8.60;;;;;;;1.82;79.62;98057.07;1656770;86;25866;-71
2022/12/08 07:35:22;;;;;;;21.35;8.85;;;;;;;1.84;79.52;98072.48;1656655;86;25684;-70
2022/12/08 07:37:48;;;;;;;15.10;6.80;;;;;;;1.88;79.53;98063.53;1656914;86;26195;-67
2022/12/08 07:40:15;;;;;;;14.35;7.85;;;;;;;1.94;79.40;98063.55;1665124;85;25597;-75
2022/12/08 07:42:42;;;;;;;15.88;7.42;;;;;;;2.00;79.08;98070.04;1667528;85;27381;-76
2022/12/08 07:45:09;;;;;;;14.58;7.40;;;;;;;2.06;78.78;98072.72;1661991;86;25644;-76
2022/12/08 07:47:36;;;;;;;16.85;7.87;;;;;;;2.09;79.11;98066.23;1656727;86;25500;-72
2022/12/08 07:50:02;;;;;;;16.65;8.23;;;;;;;2.13;79.10;98068.66;1656563;86;26044;-75
2022/12/08 07:52:29;;;;;;;15.43;7.90;;;;;;;2.18;79.04;98065.67;1656843;86;25634;-70
2022/12/08 07:54:55;;;;;;;24.63;9.73;;;;;;;2.20;78.43;98067.03;1656982;86;27393;-74
2022/12/08 07:57:22;;;;;;;17.23;7.70;;;;;;;2.26;78.69;98069.18;1656419;86;25647;-72
2022/12/08 07:59:49;;;;;;;17.32;8.08;;;;;;;2.34;77.90;98068.64;1656801;86;25555;-71
2022/12/08 08:02:18;;;;;;;13.62;6.58;;;;;;;2.42;77.72;98065.89;1656627;86;26086;-65
2022/12/08 08:04:44;;;;;;;22.65;9.58;;;;;;;2.48;77.04;98066.14;1656912;86;25754;-76
2022/12/08 08:07:11;;;;;;;16.40;7.60;;;;;;;2.56;77.48;98072.89;1656717;85;28067;-68
2022/12/08 08:09:37;;;;;;;12.03;6.83;;;;;;;2.62;76.43;98066.38;1656876;86;25426;-73
2022/12/08 08:12:04;;;;;;;14.15;7.60;;;;;;;2.62;75.94;98063.67;1656837;85;25465;-72
2022/12/08 08:14:31;;;;;;;15.30;8.10;;;;;;;2.68;76.35;98062.31;1656561;86;26106;-73
2022/12/08 08:16:57;;;;;;;12.82;6.30;;;;;;;2.76;76.79;98067.95;1656631;86;25461;-72
2022/12/08 08:19:24;;;;;;;14.83;6.95;;;;;;;2.81;75.86;98059.01;1656673;86;27591;-75
2022/12/08 08:21:50;;;;;;;9.13;5.25;;;;;;;2.90;76.08;98067.91;1652949;86;25443;-78
2022/12/08 08:24:19;;;;;;;10.25;5.75;;;;;;;2.93;74.66;98067.36;1656633;86;25639;-67
2022/12/08 08:26:46;;;;;;;10.88;6.95;;;;;;;2.94;75.01;98064.34;1656606;86;26116;-77
2022/12/08 08:29:12;;;;;;;12.10;6.00;;;;;;;2.99;75.62;98069.75;1656582;86;25639;-66
2022/12/08 08:31:38;;;;;;;18.82;9.78;;;;;;;3.00;75.62;98062.45;1656598;86;27463;-69
2022/12/08 08:34:05;;;;;;;13.15;6.60;;;;;;;3.01;76.08;98069.47;1656487;86;25450;-69
2022/12/08 08:36:32;;;;;;;17.27;8.83;;;;;;;3.02;76.07;98064.31;1656949;86;25490;-68
2022/12/08 08:38:59;;;;;;;19.40;9.63;;;;;;;3.03;76.29;98067.30;1656492;86;26106;-65
2022/12/08 08:41:25;;;;;;;13.22;6.47;;;;;;;3.01;76.03;98073.00;1656647;86;25460;-73
2022/12/08 08:43:53;;;;;;;14.75;6.92;;;;;;;3.00;75.56;98078.69;1656588;86;27536;-72
2022/12/08 08:46:20;;;;;;;16.35;9.15;;;;;;;3.02;75.68;98076.50;1656941;86;25505;-66
2022/12/08 08:48:46;;;;;;;16.87;9.48;;;;;;;3.04;75.83;98076.22;1656550;86;25699;-76
2022/12/08 08:51:14;;;;;;;14.63;8.05;;;;;;;3.08;75.74;98079.45;1656523;86;26034;-75
2022/12/08 08:53:42;;;;;;;21.25;11.68;;;;;;;3.12;75.58;98085.12;1656538;86;25772;-69
2022/12/08 08:56:12;;;;;;;17.45;7.92;;;;;;;3.16;76.13;98085.39;1656784;86;27463;-74
2022/12/08 08:58:38;;;;;;;17.85;9.13;;;;;;;3.17;75.09;98083.75;1656807;86;26061;-73
2022/12/08 09:01:05;;;;;;;19.70;10.10;;;;;;;3.18;75.50;98081.84;1656708;86;25497;-73
2022/12/08 09:03:33;;;;;;;18.48;9.80;;;;;;;3.17;75.43;98085.64;1656686;86;26126;-69
2022/12/08 09:05:59;;;;;;;24.57;11.88;;;;;;;3.21;75.95;98077.22;1656586;86;25681;-69
2022/12/08 09:08:26;;;;;;;27.62;13.25;;;;;;;3.22;75.85;98079.65;1656242;86;27493;-68
2022/12/08 09:10:52;;;;;;;17.52;9.43;;;;;;;3.22;75.97;98081.00;1656570;86;25494;-67
2022/12/08 09:13:18;;;;;;;22.35;11.33;;;;;;;3.24;75.57;98084.25;1656446;86;25508;-68
2022/12/08 09:15:45;;;;;;;21.82;8.08;;;;;;;3.25;75.91;98077.73;1656396;86;26018;-72
2022/12/08 09:18:11;;;;;;;19.65;10.60;;;;;;;3.24;75.04;98073.42;1656306;86;25755;-66
2022/12/08 09:20:38;;;;;;;22.52;11.65;;;;;;;3.26;75.71;98070.43;1656662;86;27410;-65
2022/12/08 09:23:05;;;;;;;21.07;10.70;;;;;;;3.32;75.64;98073.91;1656313;86;25689;-66
2022/12/08 09:25:31;;;;;;;22.20;11.57;;;;;;;3.37;74.85;98066.55;1656323;86;25483;-66
2022/12/08 09:27:58;;;;;;;22.95;10.98;;;;;;;3.42;75.09;98070.34;1656573;86;26211;-67
2022/12/08 09:30:24;;;;;;;27.98;12.90;;;;;;;3.47;74.64;98068.94;1656790;86;25447;-67
2022/12/08 09:32:51;;;;;;;19.25;9.60;;;;;;;3.50;74.88;98062.42;1652792;86;27605;-66
2022/12/08 09:35:17;;;;;;;22.73;11.55;;;;;;;3.57;74.51;98059.38;1656336;86;25668;-65
2022/12/08 09:37:44;;;;;;;23.52;11.55;;;;;;;3.61;75.05;98047.44;1656673;86;25624;-72
2022/12/08 09:40:17;;;;;;;22.20;10.45;;;;;;;3.65;74.74;98049.84;1656532;86;26048;-65
2022/12/08 09:43:10;;;;;;;23.40;12.10;;;;;;;3.69;74.72;98046.03;1656954;86;25426;-71
2022/12/08 09:45:37;;;;;;;24.98;11.10;;;;;;;3.71;74.72;98036.52;1652801;86;27408;-74
2022/12/08 09:48:21;;;;;;;17.40;8.43;;;;;;;3.72;74.68;98037.33;1656298;86;25495;-73
2022/12/08 09:50:55;;;;;;;36.58;14.50;;;;;;;3.71;73.66;98039.79;1655608;86;25751;-65
2022/12/08 09:53:29;;;;;;;24.75;9.90;;;;;;;3.70;74.52;98033.55;1656296;86;26057;-65
2022/12/08 09:56:00;;;;;;;23.67;10.25;;;;;;;3.70;73.89;98032.20;1656636;86;25423;-65
2022/12/08 09:58:46;;;;;;;;;;;;;;;3.70;74.41;98024.60;1658852;86;27899;-65
2022/12/08 10:01:14;;;;;;;18.80;9.80;;;;;;;3.71;74.54;98024.31;1656444;86;25652;-66
2022/12/08 10:03:41;;;;;;;17.87;10.32;;;;;;;3.72;74.41;98027.84;1656436;85;25682;-65
2022/12/08 10:06:21;;;;;;;23.32;11.88;;;;;;;3.69;74.02;98033.30;1656377;86;25976;-66
2022/12/08 10:09:14;;;;;;;22.73;12.58;;;;;;;3.70;74.70;98031.38;1656860;86;25466;-65
2022/12/08 10:12:10;;;;;;;21.90;10.55;;;;;;;3.72;74.54;98027.84;1656598;86;27467;-66
2022/12/08 10:14:53;;;;;;;20.02;10.15;;;;;;;3.74;74.54;98030.53;1656998;86;25910;-74
2022/12/08 10:17:34;;;;;;;22.58;10.70;;;;;;;3.79;74.31;98029.67;1656708;85;25679;-66
2022/12/08 10:20:20;;;;;;;20.80;10.98;;;;;;;3.83;74.43;98025.86;1655416;86;26021;-65
2022/12/08 10:22:51;;;;;;;22.42;10.95;;;;;;;3.87;74.92;98029.08;1656870;86;25454;-68
2022/12/08 10:25:23;;;;;;;;;;;;;;;3.87;74.72;98016.06;1658238;86;27066;-66
2022/12/08 10:27:53;;;;;;;25.75;11.57;;;;;;;3.88;74.51;98017.13;1656106;86;25685;-66
2022/12/08 10:30:22;;;;;;;17.85;9.10;;;;;;;3.83;74.61;98017.73;1657223;86;25640;-73
2022/12/08 10:32:51;;;;;;;16.90;8.53;;;;;;;3.82;74.50;98014.20;1656908;86;26001;-69
2022/12/08 10:35:20;;;;;;;11.43;5.65;;;;;;;3.75;73.99;98010.45;1653466;86;25711;-66
2022/12/08 10:38:00;;;;;;;12.20;5.62;;;;;;;3.71;73.36;98016.19;1656978;86;27633;-66
2022/12/08 10:40:30;;;;;;;22.40;11.22;;;;;;;3.64;73.58;98015.17;1657139;86;25640;-67
2022/12/08 10:42:58;;;;;;;23.90;11.78;;;;;;;3.63;74.18;98013.54;1655369;86;25771;-67
2022/12/08 10:45:29;;;;;;;19.37;10.72;;;;;;;3.63;74.36;98017.61;1656860;86;26872;-65
2022/12/08 10:48:03;;;;;;;19.07;9.80;;;;;;;3.67;74.67;98018.39;1656871;86;25607;-66
2022/12/08 10:50:38;;;;;;;12.25;7.20;;;;;;;3.69;73.88;98021.64;1657016;86;27788;-66
2022/12/08 10:53:12;;;;;;;13.13;6.83;;;;;;;3.62;72.96;98016.00;1656120;86;25635;-65
2022/12/08 10:55:48;;;;;;;11.18;5.35;;;;;;;3.58;73.52;98010.08;1653901;86;25716;-73
2022/12/08 10:58:34;;;;;;;11.22;5.80;;;;;;;3.53;73.30;98012.81;1656642;86;26078;-69
2022/12/08 11:01:18;;;;;;;12.07;5.47;;;;;;;3.47;73.91;98007.45;1657070;86;25678;-70
2022/12/08 11:03:51;;;;;;;14.07;7.03;;;;;;;3.39;73.59;98002.63;1656918;86;28644;-69
2022/12/08 11:06:34;;;;;;;12.50;7.30;;;;;;;3.32;74.15;98002.14;1656765;86;25752;-76
2022/12/08 11:09:18;;;;;;;12.85;6.65;;;;;;;3.30;74.83;97996.19;1656545;86;25688;-75
2022/12/08 11:11:58;;;;;;;15.00;8.10;;;;;;;3.26;74.71;97999.45;1656942;86;26762;-76
2022/12/08 11:14:31;;;;;;;13.53;7.58;;;;;;;3.22;74.91;98003.01;1656321;86;25679;-73
2022/12/08 11:17:08;;;;;;;15.55;8.08;;;;;;;3.22;75.37;98003.01;1656403;86;27472;-76
2022/12/08 11:19:47;;;;;;;13.68;7.08;;;;;;;3.20;75.56;98000.58;1656264;86;25466;-78
2022/12/08 11:22:36;;;;;;;8.55;4.58;;;;;;;3.16;75.57;98013.64;1655249;86;25647;-70
2022/12/08 11:25:16;;;;;;;12.28;6.37;;;;;;;3.07;75.80;98003.92;1656221;86;25688;-70
2022/12/08 11:27:47;;;;;;;14.55;9.05;;;;;;;3.01;76.20;98008.56;1656467;86;25434;-73
2022/12/08 11:30:18;;;;;;;12.07;6.03;;;;;;;2.96;76.95;98008.58;1656923;86;27559;-77
2022/12/08 11:33:01;;;;;;;10.40;6.15;;;;;;;2.87;76.82;98010.53;1656747;86;25636;-68
2022/12/08 11:35:36;;;;;;;13.53;6.35;;;;;;;2.82;77.40;98003.00;1653237;85;25682;-72
2022/12/08 11:38:13;;;;;;;12.37;7.08;;;;;;;2.76;77.47;98000.84;1656332;86;26160;-71
2022/12/08 11:40:43;;;;;;;17.02;8.18;;;;;;;2.74;77.58;98000.33;1656089;86;25455;-67
2022/12/08 11:43:26;;;;;;;16.20;7.95;;;;;;;2.76;77.79;98000.31;1656679;86;27627;-73
2022/12/08 11:46:00;;;;;;;25.92;13.62;;;;;;;2.80;78.05;98001.10;1656311;86;27175;-74
2022/12/08 11:49:05;;;;;;;22.67;10.78;;;;;;;2.80;78.16;97990.28;1656231;86;25472;-74
2022/12/08 11:51:52;;;;;;;22.62;11.25;;;;;;;2.83;78.31;97993.78;1656560;86;26010;-69
2022/12/08 11:54:34;;;;;;;21.20;10.95;;;;;;;2.83;78.70;97991.89;1656603;86;25739;-71
2022/12/08 11:57:07;;;;;;;;;;;;;;;2.82;78.75;97986.20;1659136;86;27553;-69